sensor_id;sensor_type;location;lat;lon;timestamp;temperature;humidity
9371;DHT22;4725;48.384;8.984;2023-04-25T00:02:12;6.10;99.90
9371;DHT22;4725;48.384;8.984;2023-04-25T00:04:40;6.10;99.90
9371;DHT22;4725;48.384;8.984;2023-04-25T00:07:07;6.10;99.90
9371;DHT22;4725;48.384;8.984;2023-04-25T00:09:35;6.10;99.90
9371;DHT22;4725;48.384;8.984;2023-04-25T00:14:29;6.20;99.90
9371;DHT22;4725;48.384;8.984;2023-04-25T00:19:26;6.30;99.90
9371;DHT22;4725;48.384;8.984;2023-04-25T00:21:53;6.30;99.90
9371;DHT22;4725;48.384;8.984;2023-04-25T00:24:20;6.30;99.90
9371;DHT22;4725;48.384;8.984;2023-04-25T00:26:48;6.40;99.90
9371;DHT22;4725;48.384;8.984;2023-04-25T00:29:15;6.50;99.90
9371;DHT22;4725;48.384;8.984;2023-04-25T00:31:42;6.40;99.90
9371;DHT22;4725;48.384;8.984;2023-04-25T00:34:09;6.40;99.90
9371;DHT22;4725;48.384;8.984;2023-04-25T00:39:03;6.40;99.90
9371;DHT22;4725;48.384;8.984;2023-04-25T00:41:32;6.50;99.90
9371;DHT22;4725;48.384;8.984;2023-04-25T00:44:01;6.50;99.90
9371;DHT22;4725;48.384;8.984;2023-04-25T00:46:29;6.60;99.90
9371;DHT22;4725;48.384;8.984;2023-04-25T00:48:56;6.70;99.90
9371;DHT22;4725;48.384;8.984;2023-04-25T00:51:23;6.70;99.90
9371;DHT22;4725;48.384;8.984;2023-04-25T00:53:51;6.60;99.90
9371;DHT22;4725;48.384;8.984;2023-04-25T00:56:18;6.60;99.90
9371;DHT22;4725;48.384;8.984;2023-04-25T00:58:45;6.60;99.90
9371;DHT22;4725;48.384;8.984;2023-04-25T01:01:13;6.60;99.90
9371;DHT22;4725;48.384;8.984;2023-04-25T01:03:40;6.60;99.90
9371;DHT22;4725;48.384;8.984;2023-04-25T01:06:08;6.60;99.90
9371;DHT22;4725;48.384;8.984;2023-04-25T01:08:36;6.70;99.90
9371;DHT22;4725;48.384;8.984;2023-04-25T01:11:03;6.90;99.90
9371;DHT22;4725;48.384;8.984;2023-04-25T01:15:58;6.70;99.90
9371;DHT22;4725;48.384;8.984;2023-04-25T01:18:27;6.60;99.90
9371;DHT22;4725;48.384;8.984;2023-04-25T01:20:54;6.60;99.90
9371;DHT22;4725;48.384;8.984;2023-04-25T01:23:22;6.50;99.90
9371;DHT22;4725;48.384;8.984;2023-04-25T01:25:49;6.30;99.90
9371;DHT22;4725;48.384;8.984;2023-04-25T01:28:17;6.20;99.90
9371;DHT22;4725;48.384;8.984;2023-04-25T01:30:44;6.30;99.90
9371;DHT22;4725;48.384;8.984;2023-04-25T01:33:13;6.30;99.90
9371;DHT22;4725;48.384;8.984;2023-04-25T01:35:40;6.20;99.90
9371;DHT22;4725;48.384;8.984;2023-04-25T01:38:07;6.20;99.90
9371;DHT22;4725;48.384;8.984;2023-04-25T01:40:37;6.10;99.90
9371;DHT22;4725;48.384;8.984;2023-04-25T01:43:05;6.20;99.90
9371;DHT22;4725;48.384;8.984;2023-04-25T01:45:33;6.10;99.90
9371;DHT22;4725;48.384;8.984;2023-04-25T01:48:02;6.10;99.90
9371;DHT22;4725;48.384;8.984;2023-04-25T01:50:29;6.10;99.90
9371;DHT22;4725;48.384;8.984;2023-04-25T01:52:56;6.10;99.90
9371;DHT22;4725;48.384;8.984;2023-04-25T01:55:23;6.10;99.90
9371;DHT22;4725;48.384;8.984;2023-04-25T01:57:51;6.00;99.90
9371;DHT22;4725;48.384;8.984;2023-04-25T02:00:18;6.10;99.90
9371;DHT22;4725;48.384;8.984;2023-04-25T02:07:40;5.80;99.90
9371;DHT22;4725;48.384;8.984;2023-04-25T02:10:08;5.80;99.90
9371;DHT22;4725;48.384;8.984;2023-04-25T02:12:36;5.70;99.90
9371;DHT22;4725;48.384;8.984;2023-04-25T02:15:05;5.60;99.90
9371;DHT22;4725;48.384;8.984;2023-04-25T02:17:32;5.30;99.90
9371;DHT22;4725;48.384;8.984;2023-04-25T02:19:59;5.30;99.90
9371;DHT22;4725;48.384;8.984;2023-04-25T02:22:26;5.20;99.90
9371;DHT22;4725;48.384;8.984;2023-04-25T02:24:55;5.10;99.90
9371;DHT22;4725;48.384;8.984;2023-04-25T02:29:49;4.80;99.90
9371;DHT22;4725;48.384;8.984;2023-04-25T02:32:17;4.80;99.90
9371;DHT22;4725;48.384;8.984;2023-04-25T02:34:44;4.80;99.90
9371;DHT22;4725;48.384;8.984;2023-04-25T02:37:11;4.80;99.90
9371;DHT22;4725;48.384;8.984;2023-04-25T02:39:38;4.80;99.90
9371;DHT22;4725;48.384;8.984;2023-04-25T02:42:05;4.80;99.90
9371;DHT22;4725;48.384;8.984;2023-04-25T02:44:32;4.80;99.90
9371;DHT22;4725;48.384;8.984;2023-04-25T02:46:59;4.80;99.90
9371;DHT22;4725;48.384;8.984;2023-04-25T02:49:27;4.70;99.90
9371;DHT22;4725;48.384;8.984;2023-04-25T02:51:54;4.70;99.90
9371;DHT22;4725;48.384;8.984;2023-04-25T02:54:20;4.70;99.90
9371;DHT22;4725;48.384;8.984;2023-04-25T02:56:47;4.70;99.90
9371;DHT22;4725;48.384;8.984;2023-04-25T02:59:14;4.70;99.90
9371;DHT22;4725;48.384;8.984;2023-04-25T03:04:08;4.60;99.90
9371;DHT22;4725;48.384;8.984;2023-04-25T03:06:36;4.50;99.90
9371;DHT22;4725;48.384;8.984;2023-04-25T03:09:03;4.50;99.90
9371;DHT22;4725;48.384;8.984;2023-04-25T03:11:30;4.60;99.90
9371;DHT22;4725;48.384;8.984;2023-04-25T03:13:57;4.60;99.90
9371;DHT22;4725;48.384;8.984;2023-04-25T03:16:24;1.60;99.90
9371;DHT22;4725;48.384;8.984;2023-04-25T03:18:51;4.70;99.90
9371;DHT22;4725;48.384;8.984;2023-04-25T03:21:18;4.70;99.90
9371;DHT22;4725;48.384;8.984;2023-04-25T03:23:46;4.70;99.90
9371;DHT22;4725;48.384;8.984;2023-04-25T03:28:41;4.70;99.90
9371;DHT22;4725;48.384;8.984;2023-04-25T03:31:08;4.70;99.90
9371;DHT22;4725;48.384;8.984;2023-04-25T03:33:35;4.70;99.90
9371;DHT22;4725;48.384;8.984;2023-04-25T03:36:03;4.70;99.90
9371;DHT22;4725;48.384;8.984;2023-04-25T03:38:30;4.80;99.90
9371;DHT22;4725;48.384;8.984;2023-04-25T03:40:58;4.80;99.90
9371;DHT22;4725;48.384;8.984;2023-04-25T03:43:25;4.70;99.90
9371;DHT22;4725;48.384;8.984;2023-04-25T03:45:51;4.70;99.90
9371;DHT22;4725;48.384;8.984;2023-04-25T03:48:18;4.70;99.90
9371;DHT22;4725;48.384;8.984;2023-04-25T03:50:47;4.60;99.90
9371;DHT22;4725;48.384;8.984;2023-04-25T03:53:13;4.60;99.90
9371;DHT22;4725;48.384;8.984;2023-04-25T03:55:40;4.60;99.90
9371;DHT22;4725;48.384;8.984;2023-04-25T03:58:08;4.60;99.90
9371;DHT22;4725;48.384;8.984;2023-04-25T04:03:03;4.60;99.90
9371;DHT22;4725;48.384;8.984;2023-04-25T04:05:30;4.50;99.90
9371;DHT22;4725;48.384;8.984;2023-04-25T04:07:58;4.50;99.90
9371;DHT22;4725;48.384;8.984;2023-04-25T04:10:25;4.60;99.90
9371;DHT22;4725;48.384;8.984;2023-04-25T04:12:52;4.60;99.90
9371;DHT22;4725;48.384;8.984;2023-04-25T04:15:20;4.70;99.90
9371;DHT22;4725;48.384;8.984;2023-04-25T04:17:48;4.80;99.90
9371;DHT22;4725;48.384;8.984;2023-04-25T04:20:15;4.90;99.90
9371;DHT22;4725;48.384;8.984;2023-04-25T04:22:41;4.80;99.90
9371;DHT22;4725;48.384;8.984;2023-04-25T04:25:08;4.60;99.90
9371;DHT22;4725;48.384;8.984;2023-04-25T04:27:37;5.90;99.90
9371;DHT22;4725;48.384;8.984;2023-04-25T04:32:34;4.30;99.90
9371;DHT22;4725;48.384;8.984;2023-04-25T04:35:03;4.30;99.90
9371;DHT22;4725;48.384;8.984;2023-04-25T04:37:32;4.20;99.90
9371;DHT22;4725;48.384;8.984;2023-04-25T04:39:59;4.20;99.90
9371;DHT22;4725;48.384;8.984;2023-04-25T04:42:30;4.20;99.90
9371;DHT22;4725;48.384;8.984;2023-04-25T04:44:57;4.30;99.90
9371;DHT22;4725;48.384;8.984;2023-04-25T04:47:24;4.60;99.90
9371;DHT22;4725;48.384;8.984;2023-04-25T04:49:52;4.60;99.90
9371;DHT22;4725;48.384;8.984;2023-04-25T04:52:19;4.80;99.90
9371;DHT22;4725;48.384;8.984;2023-04-25T04:54:46;4.90;99.90
9371;DHT22;4725;48.384;8.984;2023-04-25T04:57:13;5.20;99.90
9371;DHT22;4725;48.384;8.984;2023-04-25T04:59:40;5.20;99.90
9371;DHT22;4725;48.384;8.984;2023-04-25T05:02:06;5.30;99.90
9371;DHT22;4725;48.384;8.984;2023-04-25T05:04:33;5.40;99.90
9371;DHT22;4725;48.384;8.984;2023-04-25T05:07:02;2.50;99.90
9371;DHT22;4725;48.384;8.984;2023-04-25T05:09:28;5.50;99.90
9371;DHT22;4725;48.384;8.984;2023-04-25T05:11:55;5.40;99.90
9371;DHT22;4725;48.384;8.984;2023-04-25T05:14:22;5.50;99.90
9371;DHT22;4725;48.384;8.984;2023-04-25T05:16:49;5.50;99.90
9371;DHT22;4725;48.384;8.984;2023-04-25T05:19:16;5.50;99.90
9371;DHT22;4725;48.384;8.984;2023-04-25T05:21:43;5.30;99.90
9371;DHT22;4725;48.384;8.984;2023-04-25T05:24:11;5.40;99.90
9371;DHT22;4725;48.384;8.984;2023-04-25T05:26:38;5.40;99.90
9371;DHT22;4725;48.384;8.984;2023-04-25T05:29:05;5.50;99.90
9371;DHT22;4725;48.384;8.984;2023-04-25T05:31:32;5.40;99.90
9371;DHT22;4725;48.384;8.984;2023-04-25T05:33:59;5.50;99.90
9371;DHT22;4725;48.384;8.984;2023-04-25T05:36:26;5.40;99.90
9371;DHT22;4725;48.384;8.984;2023-04-25T05:38:53;5.50;99.90
9371;DHT22;4725;48.384;8.984;2023-04-25T05:41:21;5.50;99.90
9371;DHT22;4725;48.384;8.984;2023-04-25T05:43:48;5.50;99.90
9371;DHT22;4725;48.384;8.984;2023-04-25T05:46:15;5.60;99.90
9371;DHT22;4725;48.384;8.984;2023-04-25T05:48:43;5.70;99.90
9371;DHT22;4725;48.384;8.984;2023-04-25T05:51:10;5.70;99.90
9371;DHT22;4725;48.384;8.984;2023-04-25T05:53:36;5.70;99.90
9371;DHT22;4725;48.384;8.984;2023-04-25T05:58:32;5.90;99.90
9371;DHT22;4725;48.384;8.984;2023-04-25T06:03:26;5.90;99.90
9371;DHT22;4725;48.384;8.984;2023-04-25T06:05:53;6.00;99.90
9371;DHT22;4725;48.384;8.984;2023-04-25T06:08:19;6.10;99.90
9371;DHT22;4725;48.384;8.984;2023-04-25T06:10:46;6.00;99.90
9371;DHT22;4725;48.384;8.984;2023-04-25T06:13:13;6.10;99.90
9371;DHT22;4725;48.384;8.984;2023-04-25T06:18:09;6.20;99.90
9371;DHT22;4725;48.384;8.984;2023-04-25T06:20:36;6.20;99.90
9371;DHT22;4725;48.384;8.984;2023-04-25T06:23:03;6.30;99.90
9371;DHT22;4725;48.384;8.984;2023-04-25T06:25:30;6.30;99.90
9371;DHT22;4725;48.384;8.984;2023-04-25T06:27:57;6.40;99.90
9371;DHT22;4725;48.384;8.984;2023-04-25T06:30:24;6.40;99.90
9371;DHT22;4725;48.384;8.984;2023-04-25T06:32:52;6.60;99.90
9371;DHT22;4725;48.384;8.984;2023-04-25T06:35:19;6.60;99.90
9371;DHT22;4725;48.384;8.984;2023-04-25T06:37:46;6.70;99.90
9371;DHT22;4725;48.384;8.984;2023-04-25T06:42:40;6.90;99.90
9371;DHT22;4725;48.384;8.984;2023-04-25T06:45:08;7.00;99.90
9371;DHT22;4725;48.384;8.984;2023-04-25T06:47:35;7.10;99.90
9371;DHT22;4725;48.384;8.984;2023-04-25T06:50:04;7.20;99.90
9371;DHT22;4725;48.384;8.984;2023-04-25T06:52:31;7.00;99.90
9371;DHT22;4725;48.384;8.984;2023-04-25T06:54:58;7.10;99.90
9371;DHT22;4725;48.384;8.984;2023-04-25T06:57:25;5.80;99.90
9371;DHT22;4725;48.384;8.984;2023-04-25T06:59:51;7.30;99.90
9371;DHT22;4725;48.384;8.984;2023-04-25T07:02:18;7.30;99.90
9371;DHT22;4725;48.384;8.984;2023-04-25T07:04:47;7.40;99.90
9371;DHT22;4725;48.384;8.984;2023-04-25T07:07:15;7.30;99.90
9371;DHT22;4725;48.384;8.984;2023-04-25T07:09:42;7.30;99.90
9371;DHT22;4725;48.384;8.984;2023-04-25T07:12:09;7.30;99.90
9371;DHT22;4725;48.384;8.984;2023-04-25T07:14:36;7.30;99.90
9371;DHT22;4725;48.384;8.984;2023-04-25T07:17:03;7.20;99.90
9371;DHT22;4725;48.384;8.984;2023-04-25T07:19:32;7.00;99.90
9371;DHT22;4725;48.384;8.984;2023-04-25T07:21:58;6.90;99.90
9371;DHT22;4725;48.384;8.984;2023-04-25T07:24:27;6.70;99.90
9371;DHT22;4725;48.384;8.984;2023-04-25T07:26:54;6.20;99.90
9371;DHT22;4725;48.384;8.984;2023-04-25T07:29:20;6.60;99.90
9371;DHT22;4725;48.384;8.984;2023-04-25T07:31:47;6.40;99.90
9371;DHT22;4725;48.384;8.984;2023-04-25T07:34:14;6.40;99.90
9371;DHT22;4725;48.384;8.984;2023-04-25T07:36:41;6.40;99.90
9371;DHT22;4725;48.384;8.984;2023-04-25T07:39:08;6.40;99.90
9371;DHT22;4725;48.384;8.984;2023-04-25T07:41:36;6.40;99.90
9371;DHT22;4725;48.384;8.984;2023-04-25T07:44:03;6.40;99.90
9371;DHT22;4725;48.384;8.984;2023-04-25T07:46:30;6.40;99.90
9371;DHT22;4725;48.384;8.984;2023-04-25T07:48:57;6.40;99.90
9371;DHT22;4725;48.384;8.984;2023-04-25T07:51:24;6.40;99.90
9371;DHT22;4725;48.384;8.984;2023-04-25T07:53:51;6.30;99.90
9371;DHT22;4725;48.384;8.984;2023-04-25T07:56:18;6.30;99.90
9371;DHT22;4725;48.384;8.984;2023-04-25T07:58:46;6.30;99.90
9371;DHT22;4725;48.384;8.984;2023-04-25T08:01:13;6.20;99.90
9371;DHT22;4725;48.384;8.984;2023-04-25T08:03:40;6.40;99.90
9371;DHT22;4725;48.384;8.984;2023-04-25T08:08:34;6.40;99.90
9371;DHT22;4725;48.384;8.984;2023-04-25T08:11:01;6.30;99.90
9371;DHT22;4725;48.384;8.984;2023-04-25T08:13:28;6.20;99.90
9371;DHT22;4725;48.384;8.984;2023-04-25T08:15:56;6.10;99.90
9371;DHT22;4725;48.384;8.984;2023-04-25T08:18:23;6.00;99.90
9371;DHT22;4725;48.384;8.984;2023-04-25T08:20:50;5.90;99.90
9371;DHT22;4725;48.384;8.984;2023-04-25T08:23:17;5.90;99.90
9371;DHT22;4725;48.384;8.984;2023-04-25T08:25:44;5.90;99.90
9371;DHT22;4725;48.384;8.984;2023-04-25T08:28:10;5.70;99.90
9371;DHT22;4725;48.384;8.984;2023-04-25T08:30:37;5.60;99.90
9371;DHT22;4725;48.384;8.984;2023-04-25T08:33:05;4.60;99.90
9371;DHT22;4725;48.384;8.984;2023-04-25T08:35:33;5.60;99.90
9371;DHT22;4725;48.384;8.984;2023-04-25T08:38:00;5.50;99.90
9371;DHT22;4725;48.384;8.984;2023-04-25T08:40:28;5.40;99.90
9371;DHT22;4725;48.384;8.984;2023-04-25T08:42:56;5.30;99.90
9371;DHT22;4725;48.384;8.984;2023-04-25T08:45:25;5.20;99.90
9371;DHT22;4725;48.384;8.984;2023-04-25T08:47:53;5.10;99.90
9371;DHT22;4725;48.384;8.984;2023-04-25T08:50:24;5.00;99.90
9371;DHT22;4725;48.384;8.984;2023-04-25T08:52:53;4.90;99.90
9371;DHT22;4725;48.384;8.984;2023-04-25T08:55:21;4.90;99.90
9371;DHT22;4725;48.384;8.984;2023-04-25T08:57:49;4.70;99.90
9371;DHT22;4725;48.384;8.984;2023-04-25T09:00:17;4.70;99.90
9371;DHT22;4725;48.384;8.984;2023-04-25T09:02:45;4.40;99.90
9371;DHT22;4725;48.384;8.984;2023-04-25T09:05:14;4.20;99.90
9371;DHT22;4725;48.384;8.984;2023-04-25T09:07:42;4.10;99.90
9371;DHT22;4725;48.384;8.984;2023-04-25T09:10:09;4.10;99.90
9371;DHT22;4725;48.384;8.984;2023-04-25T09:12:36;4.20;99.90
9371;DHT22;4725;48.384;8.984;2023-04-25T09:15:07;4.30;99.90
9371;DHT22;4725;48.384;8.984;2023-04-25T09:20:07;4.10;99.90
9371;DHT22;4725;48.384;8.984;2023-04-25T09:22:34;4.10;99.90
9371;DHT22;4725;48.384;8.984;2023-04-25T09:25:07;3.80;99.90
9371;DHT22;4725;48.384;8.984;2023-04-25T09:27:34;3.40;99.90
9371;DHT22;4725;48.384;8.984;2023-04-25T09:30:01;3.40;99.90
9371;DHT22;4725;48.384;8.984;2023-04-25T09:32:28;3.30;99.90
9371;DHT22;4725;48.384;8.984;2023-04-25T09:34:56;3.30;99.90
9371;DHT22;4725;48.384;8.984;2023-04-25T09:37:25;2.90;99.90
9371;DHT22;4725;48.384;8.984;2023-04-25T09:39:54;2.90;99.90
9371;DHT22;4725;48.384;8.984;2023-04-25T09:42:24;2.50;99.90
9371;DHT22;4725;48.384;8.984;2023-04-25T09:44:53;3.60;99.90
9371;DHT22;4725;48.384;8.984;2023-04-25T09:47:20;2.30;99.90
9371;DHT22;4725;48.384;8.984;2023-04-25T09:49:49;2.30;99.90
9371;DHT22;4725;48.384;8.984;2023-04-25T09:52:18;2.30;99.90
9371;DHT22;4725;48.384;8.984;2023-04-25T09:54:45;2.40;99.90
9371;DHT22;4725;48.384;8.984;2023-04-25T09:57:14;2.10;99.90
9371;DHT22;4725;48.384;8.984;2023-04-25T09:59:45;2.00;99.90
9371;DHT22;4725;48.384;8.984;2023-04-25T10:02:14;2.00;99.90
9371;DHT22;4725;48.384;8.984;2023-04-25T10:04:41;1.80;99.90
9371;DHT22;4725;48.384;8.984;2023-04-25T10:07:09;1.60;99.90
9371;DHT22;4725;48.384;8.984;2023-04-25T10:09:37;1.70;99.90
9371;DHT22;4725;48.384;8.984;2023-04-25T10:12:06;1.70;99.90
9371;DHT22;4725;48.384;8.984;2023-04-25T10:14:33;1.80;99.90
9371;DHT22;4725;48.384;8.984;2023-04-25T10:17:02;1.60;99.90
9371;DHT22;4725;48.384;8.984;2023-04-25T10:19:29;1.60;99.90
9371;DHT22;4725;48.384;8.984;2023-04-25T10:22:04;1.70;99.90
9371;DHT22;4725;48.384;8.984;2023-04-25T10:24:32;1.80;99.90
9371;DHT22;4725;48.384;8.984;2023-04-25T10:27:00;1.90;99.90
9371;DHT22;4725;48.384;8.984;2023-04-25T10:29:27;1.90;99.90
9371;DHT22;4725;48.384;8.984;2023-04-25T10:31:54;1.90;99.90
9371;DHT22;4725;48.384;8.984;2023-04-25T10:34:37;1.90;99.90
9371;DHT22;4725;48.384;8.984;2023-04-25T10:37:05;1.80;99.90
9371;DHT22;4725;48.384;8.984;2023-04-25T10:39:35;1.90;99.90
9371;DHT22;4725;48.384;8.984;2023-04-25T10:42:02;2.00;99.90
9371;DHT22;4725;48.384;8.984;2023-04-25T10:44:30;2.10;99.90
9371;DHT22;4725;48.384;8.984;2023-04-25T10:46:58;2.10;99.90
9371;DHT22;4725;48.384;8.984;2023-04-25T10:49:31;2.10;99.90
9371;DHT22;4725;48.384;8.984;2023-04-25T10:52:12;2.10;99.90
9371;DHT22;4725;48.384;8.984;2023-04-25T10:54:45;2.30;99.90
9371;DHT22;4725;48.384;8.984;2023-04-25T10:57:29;2.60;99.90
9371;DHT22;4725;48.384;8.984;2023-04-25T11:00:01;2.60;99.90
9371;DHT22;4725;48.384;8.984;2023-04-25T11:02:31;2.60;99.90
9371;DHT22;4725;48.384;8.984;2023-04-25T11:05:00;2.80;99.90
9371;DHT22;4725;48.384;8.984;2023-04-25T11:07:33;3.20;99.90
9371;DHT22;4725;48.384;8.984;2023-04-25T11:10:02;3.30;99.90
9371;DHT22;4725;48.384;8.984;2023-04-25T11:12:30;3.80;99.90
9371;DHT22;4725;48.384;8.984;2023-04-25T11:15:02;4.20;99.90
9371;DHT22;4725;48.384;8.984;2023-04-25T11:17:29;4.60;99.90
9371;DHT22;4725;48.384;8.984;2023-04-25T11:19:56;4.60;99.90
9371;DHT22;4725;48.384;8.984;2023-04-25T11:22:26;4.40;99.90
9371;DHT22;4725;48.384;8.984;2023-04-25T11:24:54;4.60;99.90
9371;DHT22;4725;48.384;8.984;2023-04-25T11:27:21;4.20;99.90
9371;DHT22;4725;48.384;8.984;2023-04-25T11:29:50;4.20;99.90
9371;DHT22;4725;48.384;8.984;2023-04-25T11:32:17;4.40;99.90
9371;DHT22;4725;48.384;8.984;2023-04-25T11:34:44;4.40;99.90
9371;DHT22;4725;48.384;8.984;2023-04-25T11:37:12;4.10;99.90
9371;DHT22;4725;48.384;8.984;2023-04-25T11:39:44;4.10;99.90
9371;DHT22;4725;48.384;8.984;2023-04-25T11:42:12;4.30;99.90
9371;DHT22;4725;48.384;8.984;2023-04-25T11:44:39;4.50;99.90
9371;DHT22;4725;48.384;8.984;2023-04-25T11:47:08;4.80;99.90
9371;DHT22;4725;48.384;8.984;2023-04-25T11:49:35;5.10;99.90
9371;DHT22;4725;48.384;8.984;2023-04-25T11:52:02;5.20;99.90
9371;DHT22;4725;48.384;8.984;2023-04-25T11:54:29;5.40;99.90
9371;DHT22;4725;48.384;8.984;2023-04-25T11:56:57;5.20;99.90
9371;DHT22;4725;48.384;8.984;2023-04-25T11:59:25;5.10;99.90
9371;DHT22;4725;48.384;8.984;2023-04-25T12:01:52;5.40;99.90
9371;DHT22;4725;48.384;8.984;2023-04-25T12:04:20;5.40;99.90
9371;DHT22;4725;48.384;8.984;2023-04-25T12:06:48;5.60;99.90
9371;DHT22;4725;48.384;8.984;2023-04-25T12:09:16;6.40;99.90
9371;DHT22;4725;48.384;8.984;2023-04-25T12:11:45;6.60;99.90
9371;DHT22;4725;48.384;8.984;2023-04-25T12:14:21;6.70;99.90
9371;DHT22;4725;48.384;8.984;2023-04-25T12:16:50;6.40;99.90
9371;DHT22;4725;48.384;8.984;2023-04-25T12:19:18;6.40;99.90
9371;DHT22;4725;48.384;8.984;2023-04-25T12:24:14;6.00;99.90
9371;DHT22;4725;48.384;8.984;2023-04-25T12:26:51;6.40;99.90
9371;DHT22;4725;48.384;8.984;2023-04-25T12:29:21;6.80;99.90
9371;DHT22;4725;48.384;8.984;2023-04-25T12:31:50;7.10;99.90
9371;DHT22;4725;48.384;8.984;2023-04-25T12:34:17;7.20;99.90
9371;DHT22;4725;48.384;8.984;2023-04-25T12:36:44;7.20;99.90
9371;DHT22;4725;48.384;8.984;2023-04-25T12:39:15;7.30;99.90
9371;DHT22;4725;48.384;8.984;2023-04-25T12:41:42;7.50;99.90
9371;DHT22;4725;48.384;8.984;2023-04-25T12:44:09;7.70;99.90
9371;DHT22;4725;48.384;8.984;2023-04-25T12:46:38;7.80;99.90
9371;DHT22;4725;48.384;8.984;2023-04-25T12:49:05;8.20;99.90
9371;DHT22;4725;48.384;8.984;2023-04-25T12:51:32;8.40;99.90
9371;DHT22;4725;48.384;8.984;2023-04-25T12:53:59;8.60;99.90
9371;DHT22;4725;48.384;8.984;2023-04-25T12:56:26;8.50;99.90
9371;DHT22;4725;48.384;8.984;2023-04-25T12:58:53;8.40;99.90
9371;DHT22;4725;48.384;8.984;2023-04-25T13:01:20;8.40;99.90
9371;DHT22;4725;48.384;8.984;2023-04-25T13:03:48;8.50;99.90
9371;DHT22;4725;48.384;8.984;2023-04-25T13:06:15;8.40;99.90
9371;DHT22;4725;48.384;8.984;2023-04-25T13:08:42;8.20;99.90
9371;DHT22;4725;48.384;8.984;2023-04-25T13:11:09;8.00;99.90
9371;DHT22;4725;48.384;8.984;2023-04-25T13:13:37;7.80;99.90
9371;DHT22;4725;48.384;8.984;2023-04-25T13:16:05;7.50;99.90
9371;DHT22;4725;48.384;8.984;2023-04-25T13:18:32;7.20;99.90
9371;DHT22;4725;48.384;8.984;2023-04-25T13:21:01;7.10;99.90
9371;DHT22;4725;48.384;8.984;2023-04-25T13:23:29;7.10;99.90
9371;DHT22;4725;48.384;8.984;2023-04-25T13:25:56;7.10;99.90
9371;DHT22;4725;48.384;8.984;2023-04-25T13:28:24;7.00;99.90
9371;DHT22;4725;48.384;8.984;2023-04-25T13:30:50;6.80;99.90
9371;DHT22;4725;48.384;8.984;2023-04-25T13:33:18;6.70;99.90
9371;DHT22;4725;48.384;8.984;2023-04-25T13:35:46;6.40;99.90
9371;DHT22;4725;48.384;8.984;2023-04-25T13:38:21;6.40;99.90
9371;DHT22;4725;48.384;8.984;2023-04-25T13:40:49;6.40;99.90
9371;DHT22;4725;48.384;8.984;2023-04-25T13:43:18;6.40;99.90
9371;DHT22;4725;48.384;8.984;2023-04-25T13:45:45;7.40;99.90
9371;DHT22;4725;48.384;8.984;2023-04-25T13:48:12;6.40;99.90
9371;DHT22;4725;48.384;8.984;2023-04-25T13:50:39;6.50;99.90
9371;DHT22;4725;48.384;8.984;2023-04-25T13:53:06;6.40;99.90
9371;DHT22;4725;48.384;8.984;2023-04-25T13:55:35;6.60;99.90
9371;DHT22;4725;48.384;8.984;2023-04-25T13:58:03;6.70;99.90
9371;DHT22;4725;48.384;8.984;2023-04-25T14:00:34;6.70;99.90
9371;DHT22;4725;48.384;8.984;2023-04-25T14:03:01;6.90;99.90
9371;DHT22;4725;48.384;8.984;2023-04-25T14:05:30;7.00;99.90
9371;DHT22;4725;48.384;8.984;2023-04-25T14:07:58;6.80;99.90
9371;DHT22;4725;48.384;8.984;2023-04-25T14:10:25;6.80;99.90
9371;DHT22;4725;48.384;8.984;2023-04-25T14:12:53;6.70;99.90
9371;DHT22;4725;48.384;8.984;2023-04-25T14:15:20;6.60;99.90
9371;DHT22;4725;48.384;8.984;2023-04-25T14:17:47;6.50;99.90
9371;DHT22;4725;48.384;8.984;2023-04-25T14:20:14;6.40;99.90
9371;DHT22;4725;48.384;8.984;2023-04-25T14:22:45;6.30;99.90
9371;DHT22;4725;48.384;8.984;2023-04-25T14:25:12;6.50;99.90
9371;DHT22;4725;48.384;8.984;2023-04-25T14:27:39;6.60;99.90
9371;DHT22;4725;48.384;8.984;2023-04-25T14:30:09;6.70;99.90
9371;DHT22;4725;48.384;8.984;2023-04-25T14:32:37;7.00;99.90
9371;DHT22;4725;48.384;8.984;2023-04-25T14:35:05;8.10;99.90
9371;DHT22;4725;48.384;8.984;2023-04-25T14:37:32;10.10;99.90
9371;DHT22;4725;48.384;8.984;2023-04-25T14:39:59;10.30;99.90
9371;DHT22;4725;48.384;8.984;2023-04-25T14:42:26;11.40;99.90
9371;DHT22;4725;48.384;8.984;2023-04-25T14:44:53;12.00;99.90
9371;DHT22;4725;48.384;8.984;2023-04-25T14:47:21;12.30;99.90
9371;DHT22;4725;48.384;8.984;2023-04-25T14:49:48;12.30;99.90
9371;DHT22;4725;48.384;8.984;2023-04-25T14:52:19;13.10;99.90
9371;DHT22;4725;48.384;8.984;2023-04-25T14:54:46;14.40;99.90
9371;DHT22;4725;48.384;8.984;2023-04-25T14:57:13;14.80;99.90
9371;DHT22;4725;48.384;8.984;2023-04-25T14:59:40;14.20;99.90
9371;DHT22;4725;48.384;8.984;2023-04-25T15:02:07;13.40;99.90
9371;DHT22;4725;48.384;8.984;2023-04-25T15:04:35;12.00;99.90
9371;DHT22;4725;48.384;8.984;2023-04-25T15:07:02;11.00;99.90
9371;DHT22;4725;48.384;8.984;2023-04-25T15:09:29;10.40;99.90
9371;DHT22;4725;48.384;8.984;2023-04-25T15:11:56;9.80;99.90
9371;DHT22;4725;48.384;8.984;2023-04-25T15:14:24;9.30;99.90
9371;DHT22;4725;48.384;8.984;2023-04-25T15:16:50;9.00;99.90
9371;DHT22;4725;48.384;8.984;2023-04-25T15:19:17;8.80;99.90
9371;DHT22;4725;48.384;8.984;2023-04-25T15:21:46;8.50;99.90
9371;DHT22;4725;48.384;8.984;2023-04-25T15:24:13;8.40;99.90
9371;DHT22;4725;48.384;8.984;2023-04-25T15:26:41;8.20;99.90
9371;DHT22;4725;48.384;8.984;2023-04-25T15:29:08;8.30;99.90
9371;DHT22;4725;48.384;8.984;2023-04-25T15:31:36;8.10;99.90
9371;DHT22;4725;48.384;8.984;2023-04-25T15:34:03;8.20;99.90
9371;DHT22;4725;48.384;8.984;2023-04-25T15:36:30;8.40;99.90
9371;DHT22;4725;48.384;8.984;2023-04-25T15:38:59;8.50;99.90
9371;DHT22;4725;48.384;8.984;2023-04-25T15:41:28;8.40;99.90
9371;DHT22;4725;48.384;8.984;2023-04-25T15:43:55;9.20;99.90
9371;DHT22;4725;48.384;8.984;2023-04-25T15:46:22;7.90;99.90
9371;DHT22;4725;48.384;8.984;2023-04-25T15:48:49;8.00;99.90
9371;DHT22;4725;48.384;8.984;2023-04-25T15:51:16;8.10;99.90
9371;DHT22;4725;48.384;8.984;2023-04-25T15:53:43;7.80;99.90
9371;DHT22;4725;48.384;8.984;2023-04-25T15:56:13;7.80;99.90
9371;DHT22;4725;48.384;8.984;2023-04-25T15:58:40;7.80;99.90
9371;DHT22;4725;48.384;8.984;2023-04-25T16:03:34;6.50;99.90
9371;DHT22;4725;48.384;8.984;2023-04-25T16:06:01;8.30;99.90
9371;DHT22;4725;48.384;8.984;2023-04-25T16:08:29;9.20;99.90
9371;DHT22;4725;48.384;8.984;2023-04-25T16:10:58;9.50;99.90
9371;DHT22;4725;48.384;8.984;2023-04-25T16:13:27;10.70;99.90
9371;DHT22;4725;48.384;8.984;2023-04-25T16:15:54;11.00;99.90
9371;DHT22;4725;48.384;8.984;2023-04-25T16:18:21;11.00;99.90
9371;DHT22;4725;48.384;8.984;2023-04-25T16:20:48;10.80;99.90
9371;DHT22;4725;48.384;8.984;2023-04-25T16:23:15;10.40;99.90
9371;DHT22;4725;48.384;8.984;2023-04-25T16:25:42;9.80;99.90
9371;DHT22;4725;48.384;8.984;2023-04-25T16:28:09;9.10;99.90
9371;DHT22;4725;48.384;8.984;2023-04-25T16:30:37;9.00;99.90
9371;DHT22;4725;48.384;8.984;2023-04-25T16:33:04;8.80;99.90
9371;DHT22;4725;48.384;8.984;2023-04-25T16:37:58;8.50;99.90
9371;DHT22;4725;48.384;8.984;2023-04-25T16:40:26;8.50;99.90
9371;DHT22;4725;48.384;8.984;2023-04-25T16:42:53;8.20;99.90
9371;DHT22;4725;48.384;8.984;2023-04-25T16:45:20;8.10;99.90
9371;DHT22;4725;48.384;8.984;2023-04-25T16:47:48;7.80;99.90
9371;DHT22;4725;48.384;8.984;2023-04-25T16:50:15;7.80;99.90
9371;DHT22;4725;48.384;8.984;2023-04-25T16:52:42;7.80;99.90
9371;DHT22;4725;48.384;8.984;2023-04-25T16:55:09;7.70;99.90
9371;DHT22;4725;48.384;8.984;2023-04-25T16:57:37;7.50;99.90
9371;DHT22;4725;48.384;8.984;2023-04-25T17:00:05;7.40;99.90
9371;DHT22;4725;48.384;8.984;2023-04-25T17:02:34;7.40;99.90
9371;DHT22;4725;48.384;8.984;2023-04-25T17:05:02;7.30;99.90
9371;DHT22;4725;48.384;8.984;2023-04-25T17:09:58;7.10;99.90
9371;DHT22;4725;48.384;8.984;2023-04-25T17:12:25;6.90;99.90